Argora, Idaho
Current Conditions -  °F | °C
As of 10:53 PM on Friday 19 Dec 2014 (Local Time) from KRXE Reporting Station
Light Snow Light Snow  
Wind Chill: 24°   Ceiling: 400
Heat Index: 32°   Visibility: 4mi
Dew Point: 32°   Wind: 10mph
Humidity: 100%   Direction: 210°SSW
Pressure: 30.08"   Gusts: NA
Location:  44.2396°N, 112.579°W
Report Text: KRXE 200553Z AUTO 21009KT 4SM -SN BR OVC004 00/00 A3008 RMK AO2 SNB13 SLP208 P0000 60007 T00000000 10022 20000 52006
Loading
Personal Weather Stations






























Interactive Weather Map New forecast layout! Learn more

10-Day Weather Forecast

Advertisements
Track Severe Weather on mobile